createdAt,value
2023-04-10T00:02:27.346Z,100037.78
2023-04-10T00:08:29.361Z,100035.19
2023-04-10T00:14:31.378Z,100030.25
2023-04-10T00:20:33.537Z,100036.13
2023-04-10T00:26:38.466Z,100036.66
2023-04-10T00:32:40.625Z,100034.41
2023-04-10T00:38:42.565Z,100039.22
2023-04-10T00:44:45.318Z,100036.97
2023-04-10T00:50:47.585Z,100046.94
2023-04-10T00:56:50.568Z,100051.00
2023-04-10T01:02:53.913Z,100044.84
2023-04-10T01:09:05.554Z,100036.75
2023-04-10T01:15:21.011Z,100027.00
2023-04-10T01:21:24.850Z,100020.94
2023-04-10T01:27:47.163Z,100021.47
2023-04-10T01:33:57.432Z,100031.28
2023-04-10T01:40:08.625Z,100031.22
2023-04-10T01:46:12.850Z,100045.50
2023-04-10T01:52:16.579Z,100044.56
2023-04-10T01:58:19.236Z,100041.44
2023-04-10T02:04:21.182Z,100037.66
2023-04-10T02:10:31.468Z,100021.75
2023-04-10T02:16:34.378Z,100024.88
2023-04-10T02:22:37.021Z,100019.06
2023-04-10T02:28:39.903Z,100026.91
2023-04-10T02:34:43.787Z,100019.38
2023-04-10T02:40:46.489Z,100010.09
2023-04-10T02:46:48.398Z,100002.78
2023-04-10T02:52:50.385Z,100003.19
2023-04-10T02:58:52.329Z,99998.31
2023-04-10T03:04:54.344Z,99997.56
2023-04-10T03:10:56.459Z,99990.97
2023-04-10T03:16:58.375Z,99977.78
2023-04-10T03:23:00.760Z,99974.81
2023-04-10T03:29:02.728Z,99984.25
2023-04-10T03:35:05.153Z,99976.84
2023-04-10T03:41:07.353Z,99979.00
2023-04-10T03:47:09.340Z,99975.78
2023-04-10T03:53:11.232Z,99963.09
2023-04-10T03:59:13.103Z,99972.78
2023-04-10T04:05:15.012Z,99977.13
2023-04-10T04:11:16.951Z,99978.53
2023-04-10T04:17:21.119Z,99971.19
2023-04-10T04:23:23.078Z,99975.34
2023-04-10T04:29:25.016Z,99972.50
2023-04-10T04:35:26.926Z,99972.84
2023-04-10T04:41:32.188Z,99979.44
2023-04-10T04:47:34.155Z,99979.44
2023-04-10T04:53:36.986Z,99983.28
2023-04-10T04:59:38.897Z,99984.44
2023-04-10T05:05:40.856Z,99971.28
2023-04-10T05:11:42.785Z,99983.56
2023-04-10T05:17:44.807Z,99976.53
2023-04-10T05:23:46.712Z,99969.31
2023-04-10T05:29:48.598Z,99975.66
2023-04-10T05:35:50.857Z,99982.34
2023-04-10T05:41:52.784Z,99988.16
2023-04-10T05:47:54.837Z,99995.59
2023-04-10T05:53:56.735Z,99983.81
2023-04-10T05:59:58.675Z,99986.31
2023-04-10T06:06:02.558Z,99987.69
2023-04-10T06:12:04.642Z,99979.09
2023-04-10T06:18:06.543Z,99986.72
2023-04-10T06:24:09.220Z,99995.06
2023-04-10T06:30:12.282Z,99995.25
2023-04-10T06:36:14.171Z,99994.00
2023-04-10T06:42:16.147Z,99992.34
2023-04-10T06:48:18.029Z,99988.47
2023-04-10T06:54:21.201Z,99985.72
2023-04-10T07:00:24.042Z,99973.91
2023-04-10T07:06:27.012Z,99975.28
2023-04-10T07:12:29.611Z,99974.03
2023-04-10T07:18:31.629Z,99974.78
2023-04-10T07:24:33.513Z,99966.19
2023-04-10T07:30:35.384Z,99967.63
2023-04-10T07:36:37.356Z,99956.34
2023-04-10T07:42:39.338Z,99945.72
2023-04-10T07:48:41.370Z,99939.28
2023-04-10T07:54:43.278Z,99935.38
2023-04-10T08:00:45.574Z,99933.00
2023-04-10T08:06:47.580Z,99929.88
2023-04-10T08:12:49.687Z,99925.22
2023-04-10T08:18:53.266Z,99925.34
2023-04-10T08:24:55.415Z,99917.22
2023-04-10T08:30:57.336Z,99908.22
2023-04-10T08:36:59.336Z,99903.13
2023-04-10T08:43:01.302Z,99903.72
2023-04-10T08:49:05.466Z,99899.47
2023-04-10T08:55:09.369Z,99891.31
2023-04-10T09:01:11.966Z,99887.56
2023-04-10T09:07:13.934Z,99878.03
2023-04-10T09:13:15.884Z,99870.56
2023-04-10T09:19:34.083Z,99869.69
2023-04-10T09:25:39.562Z,99865.13
2023-04-10T09:31:42.840Z,99859.63
2023-04-10T09:37:46.805Z,99838.78
2023-04-10T09:43:48.818Z,99841.94
2023-04-10T09:50:00.522Z,99827.50
2023-04-10T09:56:05.262Z,99827.91
2023-04-10T10:02:07.874Z,99810.53
2023-04-10T10:08:15.531Z,99799.44
2023-04-10T10:14:21.431Z,99775.69
2023-04-10T10:20:27.838Z,99769.13
2023-04-10T10:26:32.163Z,99752.78
2023-04-10T10:32:38.683Z,99742.66
2023-04-10T10:38:48.838Z,99736.13
2023-04-10T10:45:05.635Z,99732.25
2023-04-10T10:51:07.634Z,99722.03
2023-04-10T10:57:52.359Z,99715.50
2023-04-10T11:03:54.507Z,99714.19
2023-04-10T11:09:57.707Z,99687.84
2023-04-10T11:16:02.116Z,99680.44
2023-04-10T11:22:08.042Z,99658.63
2023-04-10T11:28:10.155Z,99646.06
2023-04-10T11:34:12.655Z,99625.94
2023-04-10T11:40:14.611Z,99616.00
2023-04-10T11:46:16.612Z,99599.56
2023-04-10T11:52:25.792Z,99585.50
2023-04-10T11:58:32.082Z,99581.03
2023-04-10T12:04:34.998Z,99566.22
2023-04-10T12:10:47.469Z,99561.63
2023-04-10T12:16:52.854Z,99545.44
2023-04-10T12:22:56.975Z,99536.25
2023-04-10T12:28:58.902Z,99514.34
2023-04-10T12:35:01.427Z,99499.00
2023-04-10T12:41:04.389Z,99494.06
2023-04-10T12:47:06.275Z,99490.06
2023-04-10T12:53:09.091Z,99485.84
2023-04-10T12:59:11.233Z,99481.41
2023-04-10T13:05:13.525Z,99460.09
2023-04-10T13:11:15.458Z,99446.53
2023-04-10T13:17:17.334Z,99436.44
2023-04-10T13:23:19.284Z,99427.66
2023-04-10T13:29:21.246Z,99417.91
2023-04-10T13:35:23.230Z,99410.22
2023-04-10T13:41:25.407Z,99404.72
2023-04-10T13:47:27.329Z,99394.03
2023-04-10T13:53:29.262Z,99391.50
2023-04-10T13:59:31.283Z,99363.88
2023-04-10T14:05:33.184Z,99367.78
2023-04-10T14:11:35.138Z,99355.53
2023-04-10T14:17:37.114Z,99341.59
2023-04-10T14:23:39.213Z,99345.53
2023-04-10T14:29:50.647Z,99325.75
2023-04-10T14:35:56.609Z,99311.72
2023-04-10T14:41:58.591Z,99299.81
2023-04-10T14:48:00.866Z,99300.03
2023-04-10T14:54:04.438Z,99281.72
2023-04-10T15:00:07.232Z,99257.34
2023-04-10T15:06:09.217Z,99243.59
2023-04-10T15:12:11.254Z,99237.47
2023-04-10T15:18:13.157Z,99218.63
2023-04-10T15:24:15.354Z,99212.91
2023-04-10T15:30:17.638Z,99203.91
2023-04-10T15:36:19.591Z,99190.81
2023-04-10T15:42:21.672Z,99179.44
2023-04-10T15:48:24.687Z,99174.19
2023-04-10T15:54:26.666Z,99158.13
2023-04-10T16:00:28.561Z,99142.41
2023-04-10T16:06:31.268Z,99126.19
2023-04-10T16:12:33.182Z,99105.13
2023-04-10T16:18:35.349Z,99095.31
2023-04-10T16:24:37.292Z,99092.69
2023-04-10T16:30:40.005Z,99077.06
2023-04-10T16:36:41.910Z,99073.00
2023-04-10T16:42:43.863Z,99066.97
2023-04-10T16:48:45.941Z,99062.72
2023-04-10T16:54:47.908Z,99053.06
2023-04-10T17:00:49.837Z,99035.88
2023-04-10T17:06:51.882Z,99020.50
2023-04-10T17:12:53.813Z,99014.41
2023-04-10T17:18:56.119Z,99003.41
2023-04-10T17:24:58.352Z,99004.56
2023-04-10T17:31:00.524Z,98997.03
2023-04-10T17:37:02.493Z,98990.84
2023-04-10T17:43:04.570Z,98996.69
2023-04-10T17:49:06.579Z,98977.63
2023-04-10T17:55:09.139Z,98980.34
2023-04-10T18:01:11.590Z,98982.66
2023-04-10T18:07:13.572Z,98980.59
2023-04-10T18:13:15.502Z,98972.44
2023-04-10T18:19:17.403Z,98952.28
2023-04-10T18:25:19.324Z,98952.34
2023-04-10T18:31:21.318Z,98936.84
2023-04-10T18:37:23.333Z,98930.72
2023-04-10T18:43:27.553Z,98917.72
2023-04-10T18:49:31.078Z,98912.53
2023-04-10T18:55:33.092Z,98900.53
2023-04-10T19:01:35.202Z,98893.16
2023-04-10T19:07:37.223Z,98880.72
2023-04-10T19:13:39.135Z,98881.09
2023-04-10T19:19:41.764Z,98865.50
2023-04-10T19:25:44.222Z,98862.34
2023-04-10T19:31:46.190Z,98846.75
2023-04-10T19:37:49.667Z,98833.72
2023-04-10T19:43:52.851Z,98823.41
2023-04-10T19:49:54.887Z,98825.63
2023-04-10T19:55:56.867Z,98833.47
2023-04-10T20:01:58.843Z,98848.28
2023-04-10T20:08:01.971Z,98826.09
2023-04-10T20:14:03.920Z,98812.84
2023-04-10T20:20:06.566Z,98790.31
2023-04-10T20:26:08.628Z,98781.19
2023-04-10T20:32:10.686Z,98765.88
2023-04-10T20:38:12.656Z,98752.59
2023-04-10T20:44:14.549Z,98751.56
2023-04-10T20:50:16.595Z,98744.13
2023-04-10T20:56:19.972Z,98742.75
2023-04-10T21:02:23.285Z,98722.59
2023-04-10T21:08:25.301Z,98724.00
2023-04-10T21:14:27.307Z,98722.38
2023-04-10T21:20:29.319Z,98705.03
2023-04-10T21:26:31.249Z,98704.47
2023-04-10T21:32:33.169Z,98677.53
2023-04-10T21:38:35.373Z,98680.22
2023-04-10T21:44:37.261Z,98684.66
2023-04-10T21:50:39.738Z,98681.88
2023-04-10T21:56:41.894Z,98685.97
2023-04-10T22:02:44.663Z,98677.06
2023-04-10T22:08:46.762Z,98676.28
2023-04-10T22:14:49.324Z,98681.03
2023-04-10T22:20:51.190Z,98679.41
2023-04-10T22:26:53.161Z,98660.56
2023-04-10T22:32:58.320Z,98661.31
2023-04-10T22:39:00.415Z,98662.38
2023-04-10T22:45:02.984Z,98660.16
2023-04-10T22:51:11.637Z,98636.16
2023-04-10T22:57:13.536Z,98610.16
2023-04-10T23:03:15.481Z,98591.72
2023-04-10T23:09:17.444Z,98620.50
2023-04-10T23:15:19.802Z,98651.09
2023-04-10T23:21:21.828Z,98624.69
2023-04-10T23:27:24.088Z,98631.09
2023-04-10T23:33:25.994Z,98652.78
2023-04-10T23:39:27.995Z,98645.78
2023-04-10T23:45:29.872Z,98619.78
2023-04-10T23:51:32.912Z,98654.06
2023-04-10T23:57:34.803Z,98648.38
